Time;durP1;ratioP1;P1;durP2;ratioP2;P2;SDS_P1;SDS_P2;PMS_P1;PMS_P2;Temp;Humidity;BMP_temperature;BMP_pressure;BME280_temperature;BME280_humidity;BME280_pressure;Samples;Min_cycle;Max_cycle;Signal;HPM_P1;HPM_P2
2023/07/15 00:01:05;;;;;;;1.53;1.20;;;17.50;99.90;;;;;;5041871;28;21275;-77
2023/07/15 00:03:32;;;;;;;1.50;1.17;;;17.50;99.90;;;;;;5039433;28;20515;-75
2023/07/15 00:05:59;;;;;;;2.07;1.87;;;17.40;99.90;;;;;;5042941;28;20601;-76
2023/07/15 00:08:27;;;;;;;1.07;0.97;;;17.50;99.90;;;;;;5048466;27;20489;-77
2023/07/15 00:10:55;;;;;;;1.83;1.50;;;17.40;99.90;;;;;;5044054;28;20441;-78
2023/07/15 00:13:22;;;;;;;1.60;1.50;;;17.30;99.90;;;;;;5042899;28;20529;-76
2023/07/15 00:15:53;;;;;;;1.40;1.30;;;17.40;99.90;;;;;;5038738;28;20505;-75
2023/07/15 00:18:20;;;;;;;1.80;1.10;;;17.30;99.90;;;;;;5041014;28;20559;-78
2023/07/15 00:20:48;;;;;;;1.63;1.20;;;17.10;99.90;;;;;;5045370;28;20488;-77
2023/07/15 00:23:19;;;;;;;2.07;1.60;;;17.10;99.90;;;;;;5041865;28;21168;-77
2023/07/15 00:25:46;;;;;;;1.63;1.10;;;17.10;99.90;;;;;;5044605;28;21015;-79
2023/07/15 00:28:15;;;;;;;1.33;1.20;;;17.10;99.90;;;;;;5044990;28;21250;-76
2023/07/15 00:30:42;;;;;;;2.00;1.50;;;17.00;99.90;;;;;;5043850;28;20491;-78
2023/07/15 00:33:14;;;;;;;1.60;1.33;;;17.10;99.90;;;;;;5035079;27;20542;-78
2023/07/15 00:35:41;;;;;;;3.00;1.20;;;17.00;99.90;;;;;;5050860;27;20445;-77
2023/07/15 00:38:10;;;;;;;2.70;2.50;;;17.10;99.90;;;;;;5043436;28;20452;-77
2023/07/15 00:40:40;;;;;;;1.73;1.63;;;17.10;99.90;;;;;;5042950;28;20545;-76
2023/07/15 00:43:44;;;;;;;2.97;2.00;;;17.00;99.90;;;;;;5039985;28;21027;-77
2023/07/15 00:46:31;;;;;;;1.67;1.50;;;17.00;99.90;;;;;;5042856;28;20472;-77
2023/07/15 00:49:02;;;;;;;1.83;1.30;;;17.00;99.90;;;;;;5038536;28;20456;-76
2023/07/15 00:51:31;;;;;;;1.60;1.50;;;17.00;99.90;;;;;;5043842;28;20860;-76
2023/07/15 00:54:00;;;;;;;1.40;1.30;;;16.90;99.90;;;;;;5038646;28;20560;-78
2023/07/15 00:56:28;;;;;;;2.50;2.33;;;16.90;99.90;;;;;;5044772;28;20452;-76
2023/07/15 00:58:56;;;;;;;1.50;1.40;;;16.80;99.90;;;;;;5044964;28;20451;-78
2023/07/15 01:01:25;;;;;;;1.10;1.00;;;16.70;99.90;;;;;;5038070;28;20565;-78
2023/07/15 01:03:54;;;;;;;1.53;1.43;;;16.60;99.90;;;;;;5040886;27;21017;-77
2023/07/15 01:06:22;;;;;;;2.27;1.53;;;16.60;99.90;;;;;;5044013;28;20897;-78
2023/07/15 01:08:49;;;;;;;1.80;1.50;;;16.60;99.90;;;;;;5053044;27;21150;-76
2023/07/15 01:11:16;;;;;;;1.77;1.37;;;16.60;99.90;;;;;;5065273;27;20497;-76
2023/07/15 01:13:42;;;;;;;2.10;1.67;;;16.60;99.90;;;;;;5041937;28;20490;-77
2023/07/15 01:16:09;;;;;;;1.33;1.07;;;16.50;99.90;;;;;;5055147;27;20477;-76
2023/07/15 01:18:38;;;;;;;3.50;0.90;;;16.50;99.90;;;;;;5038423;28;20501;-78
2023/07/15 01:21:06;;;;;;;1.77;1.67;;;16.50;99.90;;;;;;5060555;27;20517;-75
2023/07/15 01:23:34;;;;;;;5.30;2.17;;;16.50;99.90;;;;;;5043868;28;20457;-76
2023/07/15 01:26:01;;;;;;;3.57;1.83;;;16.50;99.90;;;;;;5043772;28;20514;-76
2023/07/15 01:28:28;;;;;;;1.33;1.23;;;16.50;99.90;;;;;;5040488;28;20497;-78
2023/07/15 01:30:58;;;;;;;1.57;1.43;;;16.60;99.90;;;;;;5046715;27;20469;-77
2023/07/15 01:33:25;;;;;;;1.33;1.23;;;16.60;99.90;;;;;;5041207;28;21134;-75
2023/07/15 01:35:52;;;;;;;1.60;1.50;;;16.70;99.90;;;;;;5041047;27;20621;-76
2023/07/15 01:38:19;;;;;;;1.50;1.40;;;16.70;99.90;;;;;;5044574;28;20466;-76
2023/07/15 01:40:48;;;;;;;1.40;1.30;;;16.70;99.90;;;;;;5041789;28;20565;-78
2023/07/15 01:43:15;;;;;;;1.40;1.07;;;16.70;99.90;;;;;;5041532;28;20473;-77
2023/07/15 01:45:42;;;;;;;2.83;1.30;;;16.80;99.90;;;;;;5043803;28;20536;-78
2023/07/15 01:48:09;;;;;;;6.10;2.13;;;16.70;99.90;;;;;;5039619;28;21051;-76
2023/07/15 01:50:36;;;;;;;2.03;1.20;;;16.60;99.90;;;;;;5043293;28;20508;-76
2023/07/15 01:53:04;;;;;;;2.37;1.20;;;16.60;99.90;;;;;;5043778;28;20494;-76
2023/07/15 01:55:32;;;;;;;1.13;0.80;;;16.60;99.90;;;;;;5042359;28;20477;-76
2023/07/15 01:58:01;;;;;;;2.10;1.00;;;16.50;99.90;;;;;;5039828;28;20491;-76
2023/07/15 02:00:29;;;;;;;0.73;0.73;;;16.60;99.90;;;;;;5036537;27;20446;-75
2023/07/15 02:02:56;;;;;;;1.27;0.90;;;16.50;99.90;;;;;;5043082;28;20479;-76
2023/07/15 02:05:23;;;;;;;1.47;1.10;;;16.50;99.90;;;;;;5040074;28;20499;-79
2023/07/15 02:07:50;;;;;;;0.90;0.90;;;16.40;99.90;;;;;;5042370;28;20487;-75
2023/07/15 02:10:17;;;;;;;3.03;1.00;;;16.40;99.90;;;;;;5040771;27;20558;-77
2023/07/15 02:12:44;;;;;;;2.57;1.13;;;16.40;99.90;;;;;;5042961;28;20457;-77
2023/07/15 02:15:12;;;;;;;1.37;1.27;;;16.40;99.90;;;;;;5042852;28;20527;-76
2023/07/15 02:17:39;;;;;;;0.83;0.80;;;16.40;99.90;;;;;;5041572;28;20483;-78
2023/07/15 02:20:08;;;;;;;1.03;0.80;;;16.30;99.90;;;;;;5042431;28;20454;-77
2023/07/15 02:22:34;;;;;;;0.80;0.80;;;16.40;99.90;;;;;;5038012;28;20490;-77
2023/07/15 02:25:02;;;;;;;2.00;0.83;;;16.30;99.90;;;;;;5040634;28;20465;-76
2023/07/15 02:27:32;;;;;;;1.37;1.27;;;16.30;99.90;;;;;;5043550;28;20450;-78
2023/07/15 02:29:59;;;;;;;6.23;1.50;;;16.30;99.90;;;;;;5043041;28;20450;-77
2023/07/15 02:32:39;;;;;;;2.10;0.90;;;16.30;99.90;;;;;;5038049;28;20540;-79
2023/07/15 02:35:09;;;;;;;2.00;0.87;;;16.20;99.90;;;;;;5052541;27;20485;-76
2023/07/15 02:37:37;;;;;;;2.37;1.00;;;16.20;99.90;;;;;;5039944;28;20490;-76
2023/07/15 02:40:06;;;;;;;2.20;2.03;;;16.10;99.90;;;;;;5043094;28;20499;-77
2023/07/15 02:42:33;;;;;;;2.70;0.80;;;16.00;99.90;;;;;;5040949;28;20520;-77
2023/07/15 02:45:03;;;;;;;1.80;1.27;;;15.90;99.90;;;;;;5043314;28;20458;-76
2023/07/15 02:47:32;;;;;;;1.20;1.10;;;16.00;99.90;;;;;;5041865;28;20497;-78
2023/07/15 02:50:04;;;;;;;1.10;0.80;;;16.10;99.90;;;;;;5041210;28;20472;-76
2023/07/15 02:52:32;;;;;;;1.20;1.10;;;15.90;99.90;;;;;;5041482;28;20837;-75
2023/07/15 02:54:59;;;;;;;2.47;1.30;;;15.80;99.90;;;;;;5043471;28;20577;-76
2023/07/15 02:57:27;;;;;;;1.87;1.10;;;15.80;99.90;;;;;;5040353;27;20478;-76
2023/07/15 02:59:53;;;;;;;3.13;1.80;;;15.80;99.90;;;;;;5040872;28;20530;-76
2023/07/15 03:02:20;;;;;;;2.07;1.20;;;15.80;99.90;;;;;;5042226;28;20498;-78
2023/07/15 03:04:48;;;;;;;2.80;1.50;;;15.80;99.90;;;;;;5037471;28;20465;-78
2023/07/15 03:07:17;;;;;;;1.80;1.07;;;15.80;99.90;;;;;;5034937;28;20992;-78
2023/07/15 03:09:44;;;;;;;1.57;1.47;;;15.80;99.90;;;;;;5045534;27;20470;-78
2023/07/15 03:12:12;;;;;;;1.60;1.50;;;15.80;99.90;;;;;;5039851;28;20462;-76
2023/07/15 03:14:41;;;;;;;2.13;1.30;;;15.80;99.90;;;;;;5039559;28;21016;-77
2023/07/15 03:17:09;;;;;;;1.37;1.27;;;15.80;99.90;;;;;;5040269;28;20449;-78
2023/07/15 03:19:37;;;;;;;0.83;0.83;;;15.90;99.90;;;;;;5041855;28;20475;-78
2023/07/15 03:22:04;;;;;;;3.97;1.37;;;16.00;99.90;;;;;;5044894;28;20450;-76
2023/07/15 03:24:33;;;;;;;2.70;1.40;;;16.20;99.90;;;;;;5043637;27;20882;-79
2023/07/15 03:27:00;;;;;;;4.03;1.97;;;16.20;99.90;;;;;;5044106;28;20474;-76
2023/07/15 03:29:26;;;;;;;1.83;1.10;;;16.10;99.90;;;;;;5043465;28;20953;-78
2023/07/15 03:31:54;;;;;;;1.80;1.10;;;16.00;99.90;;;;;;5045001;28;20481;-78
2023/07/15 03:34:21;;;;;;;1.63;1.50;;;16.00;99.90;;;;;;5051891;27;20609;-76
2023/07/15 03:36:48;;;;;;;1.77;1.67;;;15.90;99.90;;;;;;5039899;28;20465;-78
2023/07/15 03:39:19;;;;;;;1.37;1.20;;;16.00;99.90;;;;;;5042378;28;20825;-78
2023/07/15 03:41:48;;;;;;;2.60;1.23;;;16.10;99.90;;;;;;5044986;28;20468;-76
2023/07/15 03:44:14;;;;;;;4.40;1.43;;;16.10;99.90;;;;;;5039173;28;20458;-79
2023/07/15 03:46:42;;;;;;;1.10;1.00;;;16.10;99.90;;;;;;5043553;28;21032;-77
2023/07/15 03:49:09;;;;;;;1.60;1.30;;;16.10;99.90;;;;;;5039798;28;20505;-78
2023/07/15 03:51:36;;;;;;;1.83;1.73;;;16.20;99.90;;;;;;5044099;28;20482;-77
2023/07/15 03:54:05;;;;;;;2.13;1.20;;;16.30;99.90;;;;;;5042942;27;20522;-77
2023/07/15 03:56:33;;;;;;;1.00;1.00;;;16.30;99.90;;;;;;5043579;28;20872;-78
2023/07/15 03:59:01;;;;;;;1.00;0.90;;;16.30;99.90;;;;;;5044992;28;20449;-78
2023/07/15 04:01:28;;;;;;;3.97;1.07;;;16.40;99.90;;;;;;5045057;28;20510;-78
2023/07/15 04:03:55;;;;;;;1.63;1.00;;;16.40;99.90;;;;;;5042959;28;20485;-76
2023/07/15 04:06:22;;;;;;;1.30;1.20;;;16.50;99.90;;;;;;5038540;28;21032;-76
2023/07/15 04:08:49;;;;;;;1.27;0.90;;;16.60;99.90;;;;;;5050854;27;20452;-78
2023/07/15 04:11:17;;;;;;;0.87;0.87;;;16.60;99.90;;;;;;5042200;28;20464;-78
2023/07/15 04:13:44;;;;;;;2.10;1.07;;;16.60;99.90;;;;;;5045086;28;21064;-78
2023/07/15 04:16:13;;;;;;;2.20;1.00;;;16.60;99.90;;;;;;5043148;28;20465;-79
2023/07/15 04:18:42;;;;;;;1.20;1.07;;;16.70;99.90;;;;;;5044693;28;20507;-77
2023/07/15 04:21:09;;;;;;;1.37;1.20;;;16.80;99.90;;;;;;5042403;28;20461;-79
2023/07/15 04:23:36;;;;;;;1.77;0.90;;;16.80;99.90;;;;;;5042279;28;20495;-78
2023/07/15 04:26:03;;;;;;;1.00;0.90;;;16.90;99.90;;;;;;5043409;28;20448;-76
2023/07/15 04:28:30;;;;;;;1.00;0.90;;;16.90;99.90;;;;;;5042775;28;20496;-78
2023/07/15 04:30:57;;;;;;;1.70;0.97;;;17.00;99.90;;;;;;5043870;28;20541;-77
2023/07/15 04:33:25;;;;;;;1.17;1.07;;;17.00;99.90;;;;;;5035007;28;20502;-76
2023/07/15 04:35:52;;;;;;;1.37;1.07;;;17.00;99.90;;;;;;5059426;27;21232;-79
2023/07/15 04:38:21;;;;;;;1.77;1.10;;;17.10;99.90;;;;;;5044962;28;20486;-78
2023/07/15 04:40:48;;;;;;;2.60;0.80;;;17.10;99.90;;;;;;5044232;28;20495;-79
2023/07/15 04:43:15;;;;;;;2.17;0.80;;;17.40;99.90;;;;;;5044857;28;20482;-79
2023/07/15 04:45:41;;;;;;;1.43;1.00;;;17.60;99.90;;;;;;5043225;28;20466;-78
2023/07/15 04:48:08;;;;;;;2.80;1.33;;;17.80;99.90;;;;;;5037005;28;20504;-84
2023/07/15 04:50:38;;;;;;;1.83;1.63;;;17.90;99.90;;;;;;5042234;28;20817;-84
2023/07/15 04:53:05;;;;;;;1.00;0.90;;;18.00;99.90;;;;;;5043524;28;20456;-80
2023/07/15 04:55:32;;;;;;;1.20;0.90;;;18.20;99.90;;;;;;5038678;28;20489;-82
2023/07/15 04:57:59;;;;;;;1.30;1.20;;;18.20;99.90;;;;;;5039898;28;20485;-79
2023/07/15 05:00:27;;;;;;;1.43;1.33;;;18.20;99.90;;;;;;5040470;28;20477;-82
2023/07/15 05:02:54;;;;;;;2.73;1.50;;;18.30;99.90;;;;;;5043428;28;20553;-79
2023/07/15 05:05:21;;;;;;;1.60;0.97;;;18.50;99.90;;;;;;5040205;28;20498;-78
2023/07/15 05:07:55;;;;;;;0.90;0.80;;;18.70;99.90;;;;;;5043509;28;20481;-77
2023/07/15 05:10:22;;;;;;;1.30;1.10;;;18.80;99.90;;;;;;5072826;27;20464;-80
2023/07/15 05:12:49;;;;;;;1.13;1.00;;;19.00;99.90;;;;;;5042748;27;20518;-81
2023/07/15 05:15:16;;;;;;;6.27;0.90;;;19.10;99.90;;;;;;5042634;28;20521;-82
2023/07/15 05:17:44;;;;;;;0.80;0.70;;;19.20;99.90;;;;;;5040441;27;20465;-78
2023/07/15 05:20:13;;;;;;;2.13;2.03;;;19.40;99.90;;;;;;5043638;28;20453;-78
2023/07/15 05:22:40;;;;;;;2.17;0.93;;;19.50;99.90;;;;;;5042080;28;20525;-77
2023/07/15 05:25:12;;;;;;;2.07;1.93;;;19.70;99.90;;;;;;5037160;28;20472;-81
2023/07/15 05:27:39;;;;;;;1.17;1.07;;;19.80;99.90;;;;;;5040840;28;20450;-79
2023/07/15 05:30:08;;;;;;;1.07;1.00;;;20.00;99.90;;;;;;5042594;28;20477;-77
2023/07/15 05:32:35;;;;;;;1.33;1.00;;;19.90;99.90;;;;;;5037875;28;20458;-81
2023/07/15 05:35:02;;;;;;;1.60;1.10;;;20.00;99.90;;;;;;5042897;28;20542;-79
2023/07/15 05:37:29;;;;;;;1.20;1.10;;;20.20;99.90;;;;;;5040062;28;20878;-79
2023/07/15 05:39:57;;;;;;;1.10;0.80;;;20.20;99.90;;;;;;5038871;28;20449;-79
2023/07/15 05:42:26;;;;;;;1.30;1.00;;;20.10;99.90;;;;;;5039971;28;20508;-79
2023/07/15 05:44:53;;;;;;;0.97;0.90;;;20.30;99.90;;;;;;5040128;28;20977;-76
2023/07/15 05:47:19;;;;;;;1.30;1.20;;;20.40;99.90;;;;;;5040622;28;20492;-77
2023/07/15 05:49:46;;;;;;;1.77;1.30;;;20.40;99.90;;;;;;5035060;28;20549;-80
2023/07/15 05:52:13;;;;;;;1.37;1.27;;;20.50;99.90;;;;;;5042291;28;20462;-79
2023/07/15 05:54:40;;;;;;;0.93;0.93;;;20.70;99.90;;;;;;5039563;28;20543;-78
2023/07/15 05:57:07;;;;;;;1.73;0.77;;;20.90;99.90;;;;;;5042081;28;20536;-77
2023/07/15 05:59:36;;;;;;;3.10;0.80;;;20.90;99.90;;;;;;5043494;28;20941;-79
2023/07/15 06:02:04;;;;;;;1.77;1.20;;;21.20;99.90;;;;;;5036399;28;20493;-76
2023/07/15 06:04:31;;;;;;;1.33;0.90;;;21.40;99.90;;;;;;5041269;27;21250;-77
2023/07/15 06:06:58;;;;;;;1.10;1.00;;;21.30;99.90;;;;;;5050362;27;20522;-79
2023/07/15 06:09:25;;;;;;;1.13;1.00;;;21.20;99.90;;;;;;5045811;27;20485;-76
2023/07/15 06:11:51;;;;;;;2.10;1.40;;;21.60;99.90;;;;;;5042176;28;20518;-76
2023/07/15 06:14:18;;;;;;;1.13;1.00;;;21.90;99.90;;;;;;5035660;28;20501;-78
2023/07/15 06:16:47;;;;;;;0.97;0.80;;;21.90;99.60;;;;;;5050163;27;20493;-77
2023/07/15 06:19:14;;;;;;;1.37;1.10;;;22.20;98.60;;;;;;5040606;28;20497;-78
2023/07/15 06:21:42;;;;;;;1.50;1.40;;;22.10;97.00;;;;;;5045672;27;20490;-77
2023/07/15 06:24:09;;;;;;;1.23;1.13;;;22.20;98.00;;;;;;5041303;28;20469;-79
2023/07/15 06:26:36;;;;;;;1.33;1.20;;;22.30;96.60;;;;;;5034348;27;20538;-79
2023/07/15 06:29:03;;;;;;;1.07;1.07;;;22.30;95.80;;;;;;5043631;27;20884;-76
2023/07/15 06:31:30;;;;;;;1.30;0.80;;;22.50;96.00;;;;;;5038938;28;20546;-77
2023/07/15 06:33:58;;;;;;;1.10;1.10;;;22.80;94.90;;;;;;5038315;27;20466;-76
2023/07/15 06:36:25;;;;;;;1.20;1.10;;;23.00;93.90;;;;;;5037385;28;20520;-76
2023/07/15 06:38:52;;;;;;;0.90;0.80;;;22.90;91.90;;;;;;5040280;28;20984;-76
2023/07/15 06:41:19;;;;;;;0.80;0.70;;;22.80;90.90;;;;;;5040008;28;20551;-79
2023/07/15 06:43:46;;;;;;;1.97;1.00;;;23.00;93.50;;;;;;5040752;28;20970;-75
2023/07/15 06:46:13;;;;;;;1.30;1.20;;;23.00;92.40;;;;;;5040352;28;20923;-78
2023/07/15 06:48:40;;;;;;;2.23;1.20;;;23.10;93.40;;;;;;5039290;28;21310;-76
2023/07/15 06:51:10;;;;;;;1.67;1.57;;;23.40;93.70;;;;;;5040697;28;20458;-77
2023/07/15 06:53:37;;;;;;;0.80;0.80;;;23.60;92.40;;;;;;5040591;28;20469;-77
2023/07/15 06:56:04;;;;;;;1.00;0.93;;;23.80;91.40;;;;;;5042113;27;20930;-77
2023/07/15 06:58:31;;;;;;;2.27;1.50;;;23.90;91.60;;;;;;5041970;28;20544;-78
2023/07/15 07:00:58;;;;;;;1.10;1.00;;;24.30;92.20;;;;;;5041344;28;20495;-77
2023/07/15 07:03:25;;;;;;;1.40;1.00;;;24.50;90.60;;;;;;5038718;28;20951;-80
2023/07/15 07:05:52;;;;;;;1.33;1.23;;;24.60;91.60;;;;;;5040468;27;20503;-77
2023/07/15 07:08:22;;;;;;;3.17;1.33;;;24.90;92.50;;;;;;5041081;28;20564;-79
2023/07/15 07:10:51;;;;;;;1.30;1.20;;;24.70;92.00;;;;;;5037786;28;20465;-78
2023/07/15 07:13:18;;;;;;;2.87;1.30;;;24.60;92.20;;;;;;5039061;27;20535;-82
2023/07/15 07:15:45;;;;;;;1.33;1.33;;;24.70;91.30;;;;;;5040824;28;20580;-78
2023/07/15 07:18:12;;;;;;;1.30;1.00;;;24.60;92.40;;;;;;5053138;28;21045;-78
2023/07/15 07:20:39;;;;;;;2.07;1.90;;;24.60;93.10;;;;;;5041180;28;20496;-78
2023/07/15 07:23:06;;;;;;;1.70;1.17;;;24.40;90.10;;;;;;5038186;27;20472;-79
2023/07/15 07:25:35;;;;;;;3.00;1.33;;;24.60;91.00;;;;;;5040683;28;20496;-79
2023/07/15 07:28:02;;;;;;;1.33;1.13;;;25.00;90.10;;;;;;5042169;28;20985;-80
2023/07/15 07:30:28;;;;;;;1.00;0.90;;;25.20;89.30;;;;;;5039629;27;20560;-79
2023/07/15 07:32:55;;;;;;;1.60;1.50;;;25.40;90.10;;;;;;5038552;28;20843;-79
2023/07/15 07:35:22;;;;;;;2.40;1.50;;;25.60;87.40;;;;;;5035201;27;20486;-79
2023/07/15 07:37:50;;;;;;;1.97;1.03;;;25.60;83.40;;;;;;5038360;28;20545;-80
2023/07/15 07:40:17;;;;;;;1.23;1.13;;;25.60;85.80;;;;;;5038487;28;20504;-83
2023/07/15 07:42:46;;;;;;;0.90;0.90;;;25.70;85.20;;;;;;5036525;28;20500;-78
2023/07/15 07:45:14;;;;;;;2.17;1.40;;;25.40;77.90;;;;;;5035419;28;20473;-83
2023/07/15 07:47:41;;;;;;;1.37;1.17;;;25.70;81.30;;;;;;5037131;28;20469;-81
2023/07/15 07:50:09;;;;;;;1.67;1.27;;;26.00;82.30;;;;;;5040281;28;20476;-82
2023/07/15 07:52:35;;;;;;;1.60;1.50;;;25.90;77.20;;;;;;5039142;28;20565;-79
2023/07/15 07:55:03;;;;;;;1.30;1.20;;;25.70;74.60;;;;;;5040808;27;20996;-79
2023/07/15 07:57:30;;;;;;;1.87;1.50;;;26.00;75.70;;;;;;5042582;28;20482;-79
2023/07/15 07:59:59;;;;;;;1.40;1.30;;;26.20;78.10;;;;;;5038984;28;20555;-79
2023/07/15 08:02:25;;;;;;;1.37;1.27;;;25.90;76.80;;;;;;5039318;28;20540;-79
2023/07/15 08:04:53;;;;;;;1.10;1.10;;;26.00;78.10;;;;;;5037106;27;20568;-79
2023/07/15 08:07:20;;;;;;;1.37;1.27;;;26.50;76.70;;;;;;5043434;28;20500;-81
2023/07/15 08:09:47;;;;;;;2.50;1.77;;;26.80;80.40;;;;;;5043906;27;20470;-79
2023/07/15 08:12:14;;;;;;;1.63;1.53;;;26.80;77.00;;;;;;5041688;27;20497;-79
2023/07/15 08:14:41;;;;;;;1.20;0.93;;;26.90;74.80;;;;;;5041780;28;20495;-80
2023/07/15 08:17:09;;;;;;;1.40;1.00;;;27.00;71.40;;;;;;5043448;28;21065;-80
2023/07/15 08:19:36;;;;;;;1.40;1.30;;;27.10;76.70;;;;;;5043686;27;20539;-80
2023/07/15 08:22:03;;;;;;;1.20;1.10;;;27.30;74.90;;;;;;5036571;28;20464;-80
2023/07/15 08:24:30;;;;;;;2.67;1.37;;;27.20;73.50;;;;;;5036996;27;20552;-80
2023/07/15 08:26:57;;;;;;;1.50;1.40;;;27.30;74.00;;;;;;5040323;28;20831;-80
2023/07/15 08:29:24;;;;;;;2.10;1.30;;;27.50;68.00;;;;;;5040052;27;20511;-81
2023/07/15 08:31:51;;;;;;;4.40;1.40;;;27.50;76.20;;;;;;5059680;27;20534;-80
2023/07/15 08:34:19;;;;;;;1.93;1.73;;;27.50;71.90;;;;;;5037565;28;20501;-80
2023/07/15 08:36:46;;;;;;;11.83;2.40;;;27.40;72.90;;;;;;5041313;27;20523;-80
2023/07/15 08:39:13;;;;;;;1.47;1.37;;;27.60;69.10;;;;;;5051971;27;20482;-81
2023/07/15 08:41:41;;;;;;;4.60;1.70;;;27.80;67.20;;;;;;5043694;28;20608;-82
2023/07/15 08:44:10;;;;;;;1.33;1.03;;;27.70;68.50;;;;;;5045799;28;21080;-80
2023/07/15 08:46:38;;;;;;;1.67;1.57;;;28.00;67.90;;;;;;5060911;27;20489;-80
2023/07/15 08:49:05;;;;;;;1.30;1.20;;;28.20;70.80;;;;;;5039252;28;20886;-80
2023/07/15 08:51:36;;;;;;;1.47;1.30;;;28.40;66.50;;;;;;5043248;27;20463;-81
2023/07/15 08:54:04;;;;;;;1.53;1.37;;;28.70;63.10;;;;;;5040002;28;20469;-83
2023/07/15 08:56:34;;;;;;;2.20;1.10;;;28.90;64.60;;;;;;5043817;28;20522;-79
2023/07/15 08:59:01;;;;;;;1.17;1.00;;;29.10;60.30;;;;;;5040570;28;20480;-80
2023/07/15 09:01:28;;;;;;;1.40;1.30;;;28.90;58.10;;;;;;5036405;28;20527;-80
2023/07/15 09:03:55;;;;;;;1.23;0.90;;;29.10;60.10;;;;;;5040955;27;20478;-80
2023/07/15 09:06:23;;;;;;;1.83;1.73;;;29.10;57.40;;;;;;5040192;28;20489;-80
2023/07/15 09:08:52;;;;;;;2.27;2.07;;;29.00;56.50;;;;;;5041961;27;20509;-80
2023/07/15 09:11:19;;;;;;;1.50;1.40;;;29.10;58.30;;;;;;5036333;28;21191;-81
2023/07/15 09:13:47;;;;;;;2.17;1.50;;;29.10;58.10;;;;;;5039489;28;20456;-79
2023/07/15 09:16:14;;;;;;;1.60;1.50;;;29.30;58.70;;;;;;5052702;27;21233;-81
2023/07/15 09:18:43;;;;;;;3.43;1.30;;;29.60;57.80;;;;;;5044515;27;20463;-80
2023/07/15 09:21:13;;;;;;;2.00;1.20;;;29.80;56.20;;;;;;5057628;27;20497;-80
2023/07/15 09:23:42;;;;;;;2.23;1.40;;;29.80;55.00;;;;;;5045157;27;20957;-80
2023/07/15 09:26:11;;;;;;;1.77;1.67;;;29.90;54.60;;;;;;5046760;27;20453;-80
2023/07/15 09:28:40;;;;;;;1.50;1.40;;;30.10;56.90;;;;;;5040113;28;20500;-82
2023/07/15 09:31:08;;;;;;;2.60;1.20;;;30.20;54.00;;;;;;5039194;27;20489;-85
2023/07/15 09:33:38;;;;;;;1.97;1.10;;;30.10;55.40;;;;;;5042547;27;20827;-79
2023/07/15 09:36:06;;;;;;;1.47;1.37;;;30.30;52.80;;;;;;5049537;27;20481;-80
2023/07/15 09:38:35;;;;;;;1.77;0.80;;;30.40;54.00;;;;;;5040695;28;20503;-82
2023/07/15 09:41:04;;;;;;;0.90;0.90;;;30.40;51.60;;;;;;5040837;27;20554;-80
2023/07/15 09:43:49;;;;;;;1.43;1.00;;;30.80;53.70;;;;;;5039853;28;21023;-80
2023/07/15 09:46:18;;;;;;;1.90;1.40;;;30.80;50.00;;;;;;5049773;27;20473;-81
2023/07/15 09:48:46;;;;;;;4.20;1.13;;;31.20;51.20;;;;;;5055224;27;20473;-82
2023/07/15 09:51:14;;;;;;;1.60;1.50;;;31.40;52.40;;;;;;5058056;27;20493;-83
2023/07/15 09:53:44;;;;;;;1.40;1.30;;;31.10;50.60;;;;;;5052096;27;20504;-83
2023/07/15 09:56:13;;;;;;;17.43;1.97;;;30.90;47.30;;;;;;5054100;27;20481;-80
2023/07/15 09:58:46;;;;;;;1.20;1.10;;;30.80;48.40;;;;;;5048350;27;20462;-80
2023/07/15 10:01:21;;;;;;;1.20;1.10;;;30.80;47.90;;;;;;5043580;27;20545;-78
2023/07/15 10:03:54;;;;;;;2.10;1.30;;;30.70;50.70;;;;;;5054011;27;20966;-78
2023/07/15 10:06:21;;;;;;;1.70;0.97;;;30.90;47.30;;;;;;5054583;27;20518;-79
2023/07/15 10:08:49;;;;;;;1.20;1.10;;;31.30;46.80;;;;;;5045311;27;20445;-79
2023/07/15 10:11:17;;;;;;;1.40;1.23;;;31.50;46.00;;;;;;5043453;27;20549;-78
2023/07/15 10:13:44;;;;;;;0.90;0.90;;;31.90;43.50;;;;;;5041506;28;20446;-82
2023/07/15 10:16:12;;;;;;;5.30;1.20;;;31.90;43.60;;;;;;5037523;28;20525;-79
2023/07/15 10:18:41;;;;;;;1.13;0.90;;;31.80;41.30;;;;;;5040129;28;20501;-82
2023/07/15 10:21:09;;;;;;;2.30;1.33;;;31.60;41.40;;;;;;5041990;28;20549;-80
2023/07/15 10:23:36;;;;;;;1.57;1.47;;;31.90;42.30;;;;;;5050263;27;20437;-79
2023/07/15 10:26:05;;;;;;;0.90;0.90;;;31.70;38.80;;;;;;5043121;27;20492;-82
2023/07/15 10:28:34;;;;;;;1.20;1.10;;;32.10;40.90;;;;;;5045496;27;20567;-79
2023/07/15 10:31:12;;;;;;;3.80;1.10;;;32.40;37.40;;;;;;5039594;27;20464;-81
2023/07/15 10:33:55;;;;;;;0.70;0.70;;;32.20;38.50;;;;;;5048167;27;20477;-80
2023/07/15 10:36:39;;;;;;;1.23;1.13;;;32.30;33.50;;;;;;5048604;27;20472;-80
2023/07/15 10:39:14;;;;;;;1.20;1.00;;;32.40;31.50;;;;;;5040826;28;20569;-81
2023/07/15 10:41:42;;;;;;;4.30;0.70;;;32.00;28.20;;;;;;5035555;27;20516;-80
2023/07/15 10:44:19;;;;;;;1.73;1.10;;;32.20;32.10;;;;;;5051738;27;20457;-80
2023/07/15 10:46:47;;;;;;;0.90;0.70;;;32.20;31.80;;;;;;5038945;28;20505;-83
2023/07/15 10:49:17;;;;;;;1.70;0.83;;;32.20;29.80;;;;;;5038874;28;20559;-82
2023/07/15 10:51:45;;;;;;;1.17;1.07;;;32.40;31.10;;;;;;5042518;27;20464;-80
2023/07/15 10:54:12;;;;;;;1.37;0.93;;;32.20;28.30;;;;;;5034874;27;21030;-80
2023/07/15 10:56:39;;;;;;;1.13;0.90;;;32.50;29.70;;;;;;5046087;27;21072;-80
2023/07/15 10:59:06;;;;;;;1.20;0.90;;;33.00;30.20;;;;;;5044333;27;21077;-80
2023/07/15 11:01:33;;;;;;;2.70;0.80;;;33.40;30.50;;;;;;5049900;27;20491;-80
2023/07/15 11:04:06;;;;;;;1.30;0.80;;;33.60;29.30;;;;;;5037866;28;21109;-82
2023/07/15 11:06:35;;;;;;;0.80;0.80;;;33.50;27.50;;;;;;5037304;27;20449;-81
2023/07/15 11:09:15;;;;;;;0.87;0.87;;;33.20;30.00;;;;;;5046327;27;20980;-81
2023/07/15 11:11:41;;;;;;;0.83;0.83;;;33.10;28.00;;;;;;5040323;27;20465;-81
2023/07/15 11:14:20;;;;;;;1.10;1.00;;;33.00;26.10;;;;;;5052730;27;20519;-80
2023/07/15 11:16:47;;;;;;;2.17;0.80;;;32.90;29.60;;;;;;5035321;28;20489;-79
2023/07/15 11:19:14;;;;;;;1.20;0.80;;;32.90;28.60;;;;;;5057634;27;20597;-84
2023/07/15 11:21:43;;;;;;;1.40;1.30;;;33.10;27.90;;;;;;5045543;28;21162;-81
2023/07/15 11:24:12;;;;;;;1.33;1.23;;;33.10;28.10;;;;;;5039755;27;20541;-80
2023/07/15 11:26:40;;;;;;;1.40;1.00;;;33.00;26.60;;;;;;5044170;27;20508;-80
2023/07/15 11:29:17;;;;;;;1.63;1.00;;;33.40;28.40;;;;;;5044745;27;20449;-81
2023/07/15 11:31:46;;;;;;;1.30;1.20;;;33.40;26.70;;;;;;5039446;28;20840;-80
2023/07/15 11:34:13;;;;;;;0.90;0.90;;;33.60;28.40;;;;;;5040522;27;21009;-80
2023/07/15 11:36:40;;;;;;;1.17;1.07;;;34.00;28.60;;;;;;5064026;27;20484;-81
2023/07/15 11:39:10;;;;;;;1.83;1.53;;;34.10;27.50;;;;;;5055904;27;20998;-80
2023/07/15 11:41:38;;;;;;;1.00;0.90;;;34.20;26.60;;;;;;5048279;27;20984;-80
2023/07/15 11:44:10;;;;;;;1.10;0.70;;;34.10;27.30;;;;;;5045305;28;20442;-80
2023/07/15 11:46:38;;;;;;;1.33;1.10;;;34.20;28.10;;;;;;5039842;27;20569;-80
2023/07/15 11:49:05;;;;;;;1.47;1.37;;;34.20;26.30;;;;;;5043804;27;20458;-82
2023/07/15 11:51:33;;;;;;;1.00;0.80;;;34.10;27.00;;;;;;5040068;27;20971;-80
2023/07/15 11:54:00;;;;;;;0.90;0.90;;;34.40;27.80;;;;;;5068662;27;20569;-79
2023/07/15 11:56:36;;;;;;;0.80;0.80;;;34.30;25.40;;;;;;5052711;27;20486;-82
2023/07/15 11:59:05;;;;;;;1.17;1.07;;;34.40;26.20;;;;;;5042017;28;20568;-78
2023/07/15 12:01:32;;;;;;;1.30;1.13;;;34.20;25.70;;;;;;5051258;27;20529;-79
2023/07/15 12:03:59;;;;;;;1.67;1.00;;;34.40;26.20;;;;;;5045063;27;20532;-80
2023/07/15 12:06:28;;;;;;;0.70;0.70;;;34.60;24.20;;;;;;5035612;28;21013;-79
2023/07/15 12:09:02;;;;;;;2.40;0.80;;;34.10;25.00;;;;;;5046083;27;20500;-79
2023/07/15 12:11:30;;;;;;;0.80;0.80;;;34.50;26.50;;;;;;5049946;27;20449;-78
2023/07/15 12:14:01;;;;;;;0.77;0.77;;;34.40;24.50;;;;;;5034547;28;20488;-81
2023/07/15 12:16:29;;;;;;;1.00;0.80;;;34.50;24.40;;;;;;5053357;27;20569;-79
2023/07/15 12:18:57;;;;;;;2.37;1.03;;;34.80;26.70;;;;;;5042439;27;20477;-82
2023/07/15 12:21:25;;;;;;;0.80;0.70;;;34.70;25.30;;;;;;5044602;27;20461;-79
2023/07/15 12:23:51;;;;;;;0.80;0.80;;;34.80;24.20;;;;;;5041872;27;21038;-79
2023/07/15 12:26:19;;;;;;;1.20;1.10;;;35.00;25.40;;;;;;5040409;27;20461;-81
2023/07/15 12:28:46;;;;;;;1.73;1.23;;;35.20;23.50;;;;;;5050711;27;20509;-79
2023/07/15 12:31:15;;;;;;;1.23;0.80;;;35.10;25.70;;;;;;5043050;27;20481;-80
2023/07/15 12:33:42;;;;;;;1.47;1.03;;;34.80;24.20;;;;;;5042705;27;20545;-82
2023/07/15 12:36:10;;;;;;;1.43;1.10;;;34.60;23.40;;;;;;5050423;27;20940;-79
2023/07/15 12:38:37;;;;;;;1.20;1.10;;;34.40;24.50;;;;;;5041023;28;20469;-79
2023/07/15 12:41:05;;;;;;;1.00;0.80;;;34.80;25.40;;;;;;5042852;27;20545;-79
2023/07/15 12:43:33;;;;;;;0.90;0.90;;;35.00;26.20;;;;;;5045607;27;20544;-79
2023/07/15 12:46:01;;;;;;;1.00;0.90;;;35.20;26.10;;;;;;5044717;27;20477;-79
2023/07/15 12:48:30;;;;;;;1.10;1.10;;;35.10;24.60;;;;;;5036702;28;20542;-79
2023/07/15 12:50:58;;;;;;;0.90;0.90;;;34.90;25.00;;;;;;5038183;28;20493;-79
2023/07/15 12:53:25;;;;;;;1.33;1.23;;;34.80;23.60;;;;;;5049036;27;20488;-81